Terminal Aerodrome Forecast
Issued by NWS Jacksonville, FL

Home | Current Version | Previous Version | Text Only | Print | Product List | Glossary On
Versions: 1 2 3 4 5 6 7 8 9 10 11 12 13 14 15 16 17 18 19 20 21 22 23 24 25 26
000
FTUS42 KJAX 231100
TAFGNV
TAF
KGNV 231121Z 2312/2412 00000KT P6SM FEW005 SCT250
     FM231500 26004KT P6SM VCSH SCT025
     FM231800 23008KT P6SM BKN040
     FM240000 25003KT P6SM SCT060 BKN250=

USA.gov is the U.S. government's official web portal to all federal, state and local government web resources and services.